Time;durP1;ratioP1;P1;durP2;ratioP2;P2;SDS_P1;SDS_P2;PMS_P1;PMS_P2;Temp;Humidity;BMP_temperature;BMP_pressure;BME280_temperature;BME280_humidity;BME280_pressure;Samples;Min_cycle;Max_cycle;Signal;HPM_P1;HPM_P2
2022/01/03 00:02:01;;;;;;;;;;;;;;;;;;5000435;28;19926;-69
2022/01/03 00:04:28;;;;;;;;;;;;;;;;;;5005172;28;20283;-69
2022/01/03 00:06:57;;;;;;;;;;;;;;;;;;5005394;28;20300;-69
2022/01/03 00:09:24;;;;;;;;;;;;;;;;;;5006292;28;19935;-69
2022/01/03 00:11:51;;;;;;;;;;;;;;;;;;5005070;28;20238;-68
2022/01/03 00:14:18;;;;;;;;;;;;;;;;;;5003790;28;19933;-68
2022/01/03 00:16:45;;;;;;;;;;;;;;;;;;5006839;28;19925;-69
2022/01/03 00:19:12;;;;;;;;;;;;;;;;;;5008266;28;20005;-68
2022/01/03 00:21:39;;;;;;;;;;;;;;;;;;5005849;28;19931;-69
2022/01/03 00:24:06;;;;;;;;;;;;;;;;;;5001331;28;19925;-69
2022/01/03 00:26:33;;;;;;;;;;;;;;;;;;5007959;28;19925;-69
2022/01/03 00:29:02;;;;;;;;;;;;;;;;;;5002766;28;19956;-69
2022/01/03 00:31:29;;;;;;;;;;;;;;;;;;5004174;28;19973;-69
2022/01/03 00:33:56;;;;;;;;;;;;;;;;;;5007846;28;19936;-68
2022/01/03 00:36:23;;;;;;;;;;;;;;;;;;5004772;28;20016;-69
2022/01/03 00:38:50;;;;;;;;;;;;;;;;;;5002723;28;19926;-69
2022/01/03 00:41:17;;;;;;;;;;;;;;;;;;5008188;28;19930;-69
2022/01/03 00:43:44;;;;;;;;;;;;;;;;;;5003566;28;20036;-69
2022/01/03 00:46:10;;;;;;;;;;;;;;;;;;5002910;28;20368;-70
2022/01/03 00:48:37;;;;;;;;;;;;;;;;;;5009211;28;20377;-70
2022/01/03 00:51:04;;;;;;;;;;;;;;;;;;5005863;28;20328;-69
2022/01/03 00:53:31;;;;;;;;;;;;;;;;;;5006855;28;20415;-69
2022/01/03 00:55:58;;;;;;;;;;;;;;;;;;5009256;28;19931;-70
2022/01/03 00:58:25;;;;;;;;;;;;;;;;;;5006177;28;20388;-69
2022/01/03 01:00:52;;;;;;;;;;;;;;;;;;5003006;28;19929;-69
2022/01/03 01:03:19;;;;;;;;;;;;;;;;;;5004170;28;19926;-69
2022/01/03 01:05:46;;;;;;;;;;;;;;;;;;5005144;28;20024;-69
2022/01/03 01:08:13;;;;;;;;;;;;;;;;;;5004830;28;19935;-70
2022/01/03 01:10:40;;;;;;;;;;;;;;;;;;5004744;28;19932;-70
2022/01/03 01:13:07;;;;;;;;;;;;;;;;;;5004681;28;19941;-70
2022/01/03 01:15:35;;;;;;;;;;;;;;;;;;5010004;28;19925;-70
2022/01/03 01:18:04;;;;;;;;;;;;;;;;;;5004659;28;19929;-69
2022/01/03 01:20:31;;;;;;;;;;;;;;;;;;5007549;28;19953;-70
2022/01/03 01:22:59;;;;;;;;;;;;;;;;;;5005149;28;20012;-70
2022/01/03 01:28:07;;;;;;;;;;;;;;;;;;5003263;28;20371;-70
2022/01/03 01:30:34;;;;;;;;;;;;;;;;;;5007812;28;20772;-68
2022/01/03 01:33:01;;;;;;;;;;;;;;;;;;5004384;28;19925;-69
2022/01/03 01:35:28;;;;;;;;;;;;;;;;;;5006002;28;19938;-69
2022/01/03 01:37:55;;;;;;;;;;;;;;;;;;5005621;28;19940;-68
2022/01/03 01:40:22;;;;;;;;;;;;;;;;;;5004030;28;19930;-69
2022/01/03 01:42:49;;;;;;;;;;;;;;;;;;5005508;28;20024;-70
2022/01/03 01:45:16;;;;;;;;;;;;;;;;;;5004579;28;20450;-69
2022/01/03 01:47:43;;;;;;;;;;;;;;;;;;5006014;28;20352;-70
2022/01/03 01:50:10;;;;;;;;;;;;;;;;;;5004336;28;19944;-69
2022/01/03 01:52:37;;;;;;;;;;;;;;;;;;5007695;28;19926;-70
2022/01/03 01:55:04;;;;;;;;;;;;;;;;;;5002730;28;20414;-68
2022/01/03 01:57:31;;;;;;;;;;;;;;;;;;5004872;28;20388;-68
2022/01/03 01:59:58;;;;;;;;;;;;;;;;;;5000688;28;19926;-71
2022/01/03 02:02:25;;;;;;;;;;;;;;;;;;5006028;28;19925;-69
2022/01/03 02:04:52;;;;;;;;;;;;;;;;;;5003540;28;19933;-68
2022/01/03 02:07:19;;;;;;;;;;;;;;;;;;5004197;28;19944;-68
2022/01/03 02:09:46;;;;;;;;;;;;;;;;;;5001979;28;19926;-68
2022/01/03 02:12:13;;;;;;;;;;;;;;;;;;5005091;28;19940;-69
2022/01/03 02:14:40;;;;;;;;;;;;;;;;;;5007563;28;19926;-69
2022/01/03 02:17:07;;;;;;;;;;;;;;;;;;5003299;28;19947;-68
2022/01/03 02:19:34;;;;;;;;;;;;;;;;;;5006450;28;20151;-69
2022/01/03 02:22:01;;;;;;;;;;;;;;;;;;5009268;28;19926;-68
2022/01/03 02:24:27;;;;;;;;;;;;;;;;;;5003945;28;19933;-69
2022/01/03 02:26:54;;;;;;;;;;;;;;;;;;5003694;28;19932;-70
2022/01/03 02:29:21;;;;;;;;;;;;;;;;;;5004639;28;20012;-69
2022/01/03 02:31:48;;;;;;;;;;;;;;;;;;5005124;28;20008;-68
2022/01/03 02:34:15;;;;;;;;;;;;;;;;;;5005341;28;19925;-68
2022/01/03 02:36:42;;;;;;;;;;;;;;;;;;5003529;28;19931;-69
2022/01/03 02:39:09;;;;;;;;;;;;;;;;;;5006086;28;19932;-68
2022/01/03 02:41:36;;;;;;;;;;;;;;;;;;5001658;28;20308;-68
2022/01/03 02:44:03;;;;;;;;;;;;;;;;;;5006483;28;19932;-68
2022/01/03 02:46:30;;;;;;;;;;;;;;;;;;5001882;28;19947;-68
2022/01/03 02:48:57;;;;;;;;;;;;;;;;;;5001138;28;20405;-68
2022/01/03 02:51:24;;;;;;;;;;;;;;;;;;5003741;28;19933;-68
2022/01/03 02:53:51;;;;;;;;;;;;;;;;;;5002319;28;20307;-69
2022/01/03 02:56:18;;;;;;;;;;;;;;;;;;5000722;28;19926;-70
2022/01/03 02:58:45;;;;;;;;;;;;;;;;;;5007026;28;19926;-68
2022/01/03 03:01:12;;;;;;;;;;;;;;;;;;5002734;28;19926;-68
2022/01/03 03:03:39;;;;;;;;;;;;;;;;;;5004454;28;19940;-68
2022/01/03 03:06:06;;;;;;;;;;;;;;;;;;5002555;28;19932;-68
2022/01/03 03:08:33;;;;;;;;;;;;;;;;;;5000578;28;20532;-68
2022/01/03 03:11:00;;;;;;;;;;;;;;;;;;5002634;28;19947;-70
2022/01/03 03:13:27;;;;;;;;;;;;;;;;;;5007470;28;19937;-69
2022/01/03 03:15:54;;;;;;;;;;;;;;;;;;5009787;28;19940;-68
2022/01/03 03:18:21;;;;;;;;;;;;;;;;;;5008760;28;19932;-68
2022/01/03 03:20:49;;;;;;;;;;;;;;;;;;5008801;28;20019;-68
2022/01/03 03:23:16;;;;;;;;;;;;;;;;;;5010077;28;20288;-68
2022/01/03 03:25:43;;;;;;;;;;;;;;;;;;5007397;28;20376;-68
2022/01/03 03:28:10;;;;;;;;;;;;;;;;;;5011028;28;19929;-68
2022/01/03 03:30:37;;;;;;;;;;;;;;;;;;5008751;28;19926;-68
2022/01/03 03:33:04;;;;;;;;;;;;;;;;;;5008503;28;20384;-68
2022/01/03 03:35:31;;;;;;;;;;;;;;;;;;5005331;28;20196;-68
2022/01/03 03:37:58;;;;;;;;;;;;;;;;;;5008837;28;19932;-68
2022/01/03 03:40:25;;;;;;;;;;;;;;;;;;5004404;28;19925;-70
2022/01/03 03:42:52;;;;;;;;;;;;;;;;;;5007864;28;19925;-68
2022/01/03 03:45:19;;;;;;;;;;;;;;;;;;5005928;28;19933;-68
2022/01/03 03:47:46;;;;;;;;;;;;;;;;;;5007290;28;19925;-68
2022/01/03 03:50:13;;;;;;;;;;;;;;;;;;5006812;28;19926;-68
2022/01/03 03:52:40;;;;;;;;;;;;;;;;;;5007125;28;19948;-68
2022/01/03 03:55:07;;;;;;;;;;;;;;;;;;5008111;28;20277;-68
2022/01/03 03:57:34;;;;;;;;;;;;;;;;;;5008830;28;19973;-68
2022/01/03 04:00:01;;;;;;;;;;;;;;;;;;5007100;28;20323;-69
2022/01/03 04:02:28;;;;;;;;;;;;;;;;;;5010487;28;20410;-69
2022/01/03 04:04:56;;;;;;;;;;;;;;;;;;5010033;28;19925;-69
2022/01/03 04:07:23;;;;;;;;;;;;;;;;;;5010973;28;20292;-69
2022/01/03 04:09:50;;;;;;;;;;;;;;;;;;5005838;28;20380;-69
2022/01/03 04:12:17;;;;;;;;;;;;;;;;;;5007827;28;19995;-69
2022/01/03 04:14:44;;;;;;;;;;;;;;;;;;5009143;28;20020;-69
2022/01/03 04:17:12;;;;;;;;;;;;;;;;;;5002410;28;20292;-70
2022/01/03 04:19:39;;;;;;;;;;;;;;;;;;5006249;28;20362;-69
2022/01/03 04:22:05;;;;;;;;;;;;;;;;;;5002972;28;19936;-69
2022/01/03 04:24:32;;;;;;;;;;;;;;;;;;5005209;28;19932;-70
2022/01/03 04:26:59;;;;;;;;;;;;;;;;;;5006201;28;19929;-69
2022/01/03 04:29:26;;;;;;;;;;;;;;;;;;5007678;28;19932;-69
2022/01/03 04:31:53;;;;;;;;;;;;;;;;;;5003784;28;19926;-70
2022/01/03 04:34:20;;;;;;;;;;;;;;;;;;5005498;28;19925;-70
2022/01/03 04:36:47;;;;;;;;;;;;;;;;;;5004006;28;20339;-70
2022/01/03 04:39:14;;;;;;;;;;;;;;;;;;5004275;28;20364;-69
2022/01/03 04:41:41;;;;;;;;;;;;;;;;;;5002463;28;20300;-69
2022/01/03 04:44:08;;;;;;;;;;;;;;;;;;5004301;28;20396;-70
2022/01/03 04:46:35;;;;;;;;;;;;;;;;;;5003822;28;19941;-69
2022/01/03 04:49:02;;;;;;;;;;;;;;;;;;5005705;28;19957;-70
2022/01/03 04:51:29;;;;;;;;;;;;;;;;;;5003342;28;19932;-70
2022/01/03 04:53:56;;;;;;;;;;;;;;;;;;5006588;28;20016;-68
2022/01/03 04:56:23;;;;;;;;;;;;;;;;;;5006298;28;19984;-68
2022/01/03 04:58:50;;;;;;;;;;;;;;;;;;5001077;28;20018;-69
2022/01/03 05:01:17;;;;;;;;;;;;;;;;;;5002375;28;19938;-70
2022/01/03 05:03:47;;;;;;;;;;;;;;;;;;5002142;28;19925;-70
2022/01/03 05:06:14;;;;;;;;;;;;;;;;;;5004167;28;20020;-68
2022/01/03 05:08:41;;;;;;;;;;;;;;;;;;5006089;28;20307;-69
2022/01/03 05:11:08;;;;;;;;;;;;;;;;;;5002480;28;20479;-68
2022/01/03 05:13:35;;;;;;;;;;;;;;;;;;5005441;28;20375;-69
2022/01/03 05:16:02;;;;;;;;;;;;;;;;;;5009425;28;20348;-68
2022/01/03 05:18:29;;;;;;;;;;;;;;;;;;5004788;28;19930;-68
2022/01/03 05:20:56;;;;;;;;;;;;;;;;;;5004915;28;19936;-69
2022/01/03 05:23:23;;;;;;;;;;;;;;;;;;5000692;28;19926;-68
2022/01/03 05:25:50;;;;;;;;;;;;;;;;;;5008539;28;19926;-68
2022/01/03 05:28:16;;;;;;;;;;;;;;;;;;5001858;28;19948;-69
2022/01/03 05:30:43;;;;;;;;;;;;;;;;;;5002557;28;20443;-68
2022/01/03 05:33:10;;;;;;;;;;;;;;;;;;5001895;28;20389;-68
2022/01/03 05:35:37;;;;;;;;;;;;;;;;;;5003536;28;19925;-69
2022/01/03 05:38:04;;;;;;;;;;;;;;;;;;5003419;28;19940;-68
2022/01/03 05:40:31;;;;;;;;;;;;;;;;;;5004985;28;19929;-68
2022/01/03 05:42:58;;;;;;;;;;;;;;;;;;4998000;28;19932;-68
2022/01/03 05:45:25;;;;;;;;;;;;;;;;;;5006171;28;19936;-72
2022/01/03 05:47:52;;;;;;;;;;;;;;;;;;5003311;28;19925;-68
2022/01/03 05:50:19;;;;;;;;;;;;;;;;;;5005224;28;20311;-68
2022/01/03 05:52:46;;;;;;;;;;;;;;;;;;5005218;28;19933;-68
2022/01/03 05:55:13;;;;;;;;;;;;;;;;;;5004125;28;20006;-68
2022/01/03 05:57:40;;;;;;;;;;;;;;;;;;5000753;28;19925;-68
2022/01/03 06:00:07;;;;;;;;;;;;;;;;;;5004579;28;19941;-69
2022/01/03 06:02:39;;;;;;;;;;;;;;;;;;5000120;28;19934;-68
2022/01/03 06:05:07;;;;;;;;;;;;;;;;;;5001807;28;20022;-67
2022/01/03 06:07:34;;;;;;;;;;;;;;;;;;5004178;28;20406;-68
2022/01/03 06:10:03;;;;;;;;;;;;;;;;;;5001236;28;20444;-68
2022/01/03 06:12:30;;;;;;;;;;;;;;;;;;5003974;28;21747;-68
2022/01/03 06:14:57;;;;;;;;;;;;;;;;;;5001859;28;19999;-68
2022/01/03 06:17:24;;;;;;;;;;;;;;;;;;5004035;28;19926;-68
2022/01/03 06:19:51;;;;;;;;;;;;;;;;;;5005668;28;19933;-68
2022/01/03 06:22:18;;;;;;;;;;;;;;;;;;5006394;28;19933;-69
2022/01/03 06:24:45;;;;;;;;;;;;;;;;;;4999061;28;19925;-68
2022/01/03 06:27:12;;;;;;;;;;;;;;;;;;5000726;28;19945;-69
2022/01/03 06:29:38;;;;;;;;;;;;;;;;;;5003420;28;19926;-69
2022/01/03 06:32:05;;;;;;;;;;;;;;;;;;5003186;28;19932;-68
2022/01/03 06:34:32;;;;;;;;;;;;;;;;;;5002853;28;20467;-68
2022/01/03 06:36:59;;;;;;;;;;;;;;;;;;4999809;28;20433;-68
2022/01/03 06:39:26;;;;;;;;;;;;;;;;;;5004848;28;20480;-69
2022/01/03 06:41:53;;;;;;;;;;;;;;;;;;5007489;28;19972;-72
2022/01/03 06:44:20;;;;;;;;;;;;;;;;;;5008238;28;19925;-72
2022/01/03 06:46:48;;;;;;;;;;;;;;;;;;5006943;28;19925;-71
2022/01/03 06:49:15;;;;;;;;;;;;;;;;;;5002441;28;20296;-69
2022/01/03 06:51:42;;;;;;;;;;;;;;;;;;5004765;28;19968;-69
2022/01/03 06:54:10;;;;;;;;;;;;;;;;;;5006928;28;19932;-69
2022/01/03 06:56:37;;;;;;;;;;;;;;;;;;5007001;28;20489;-70
2022/01/03 06:59:04;;;;;;;;;;;;;;;;;;5005995;28;20008;-70
2022/01/03 07:01:31;;;;;;;;;;;;;;;;;;5004115;28;20403;-69
2022/01/03 07:03:58;;;;;;;;;;;;;;;;;;5003254;28;19925;-69
2022/01/03 07:06:25;;;;;;;;;;;;;;;;;;4999399;28;19933;-69
2022/01/03 07:08:52;;;;;;;;;;;;;;;;;;5003463;28;20499;-70
2022/01/03 07:11:19;;;;;;;;;;;;;;;;;;5003865;28;19932;-70
2022/01/03 07:13:49;;;;;;;;;;;;;;;;;;5000720;28;19929;-69
2022/01/03 07:19:03;;;;;;;;;;;;;;;;;;5001316;28;19933;-70
2022/01/03 07:21:30;;;;;;;;;;;;;;;;;;4998659;28;19953;-68
2022/01/03 07:23:57;;;;;;;;;;;;;;;;;;5004814;28;21808;-69
2022/01/03 07:26:24;;;;;;;;;;;;;;;;;;4998212;28;19937;-68
2022/01/03 07:28:51;;;;;;;;;;;;;;;;;;5003555;28;19968;-69
2022/01/03 07:31:18;;;;;;;;;;;;;;;;;;5005746;28;19929;-70
2022/01/03 07:33:46;;;;;;;;;;;;;;;;;;5009981;28;19948;-73
2022/01/03 07:36:13;;;;;;;;;;;;;;;;;;5006885;28;19929;-69
2022/01/03 07:38:40;;;;;;;;;;;;;;;;;;5005229;28;19933;-70
2022/01/03 07:41:08;;;;;;;;;;;;;;;;;;5006121;28;19926;-68
2022/01/03 07:43:35;;;;;;;;;;;;;;;;;;5005946;28;19926;-68
2022/01/03 07:46:02;;;;;;;;;;;;;;;;;;4999035;28;19948;-68
2022/01/03 07:48:30;;;;;;;;;;;;;;;;;;5003195;28;20012;-68
2022/01/03 07:50:57;;;;;;;;;;;;;;;;;;5002535;28;20035;-68
2022/01/03 07:53:24;;;;;;;;;;;;;;;;;;5003937;28;19948;-68
2022/01/03 07:55:51;;;;;;;;;;;;;;;;;;5006845;28;19936;-68
2022/01/03 07:58:18;;;;;;;;;;;;;;;;;;5000995;28;19929;-68
2022/01/03 08:00:53;;;;;;;;;;;;;;;;;;5001712;28;19932;-68
2022/01/03 08:03:20;;;;;;;;;;;;;;;;;;5004969;28;20040;-69
2022/01/03 08:05:47;;;;;;;;;;;;;;;;;;5005212;28;19933;-69
2022/01/03 08:08:14;;;;;;;;;;;;;;;;;;5002413;28;19925;-68
2022/01/03 08:10:42;;;;;;;;;;;;;;;;;;5003393;28;19942;-68
2022/01/03 08:13:09;;;;;;;;;;;;;;;;;;5008913;28;19963;-70
2022/01/03 08:15:38;;;;;;;;;;;;;;;;;;5013633;28;20369;-68
2022/01/03 08:18:05;;;;;;;;;;;;;;;;;;5013868;28;19937;-68
2022/01/03 08:20:32;;;;;;;;;;;;;;;;;;5006763;28;19935;-67
2022/01/03 08:22:59;;;;;;;;;;;;;;;;;;5005022;28;19932;-69
2022/01/03 08:25:26;;;;;;;;;;;;;;;;;;5003711;28;19925;-68
2022/01/03 08:27:53;;;;;;;;;;;;;;;;;;5002190;28;19926;-68
2022/01/03 08:30:19;;;;;;;;;;;;;;;;;;5004895;28;19953;-69
2022/01/03 08:32:50;;;;;;;;;;;;;;;;;;5008798;28;19926;-67
2022/01/03 08:35:18;;;;;;;;;;;;;;;;;;5005978;28;19965;-67
2022/01/03 08:37:45;;;;;;;;;;;;;;;;;;4999826;28;19930;-69
2022/01/03 08:40:12;;;;;;;;;;;;;;;;;;5005495;28;19929;-68
2022/01/03 08:42:39;;;;;;;;;;;;;;;;;;5004303;28;20500;-68
2022/01/03 08:45:06;;;;;;;;;;;;;;;;;;5005794;28;20016;-68
2022/01/03 08:47:33;;;;;;;;;;;;;;;;;;5003842;28;20044;-67
2022/01/03 08:50:00;;;;;;;;;;;;;;;;;;5004834;28;21186;-68
2022/01/03 08:52:27;;;;;;;;;;;;;;;;;;5004566;28;19933;-68
2022/01/03 08:54:54;;;;;;;;;;;;;;;;;;5009506;28;20338;-67
2022/01/03 08:57:21;;;;;;;;;;;;;;;;;;5003764;28;19925;-67
2022/01/03 08:59:48;;;;;;;;;;;;;;;;;;5009430;28;19929;-67
2022/01/03 09:02:16;;;;;;;;;;;;;;;;;;5005731;28;19948;-69
2022/01/03 09:04:43;;;;;;;;;;;;;;;;;;5005975;28;20444;-67
2022/01/03 09:07:10;;;;;;;;;;;;;;;;;;5004287;28;19926;-68
2022/01/03 09:09:40;;;;;;;;;;;;;;;;;;5006881;28;22871;-66
2022/01/03 09:12:07;;;;;;;;;;;;;;;;;;5004741;28;20380;-66
2022/01/03 09:14:34;;;;;;;;;;;;;;;;;;5006408;28;19930;-67
2022/01/03 09:17:01;;;;;;;;;;;;;;;;;;5005787;28;19992;-67
2022/01/03 09:19:28;;;;;;;;;;;;;;;;;;5006772;28;19932;-67
2022/01/03 09:22:03;;;;;;;;;;;;;;;;;;5005199;28;19925;-68
2022/01/03 09:24:43;;;;;;;;;;;;;;;;;;5006699;28;20016;-67
2022/01/03 09:29:54;;;;;;;;;;;;;;;;;;5005267;28;19933;-67
2022/01/03 09:32:21;;;;;;;;;;;;;;;;;;5007624;28;20036;-67
2022/01/03 09:34:48;;;;;;;;;;;;;;;;;;5006121;28;19925;-69
2022/01/03 09:37:19;;;;;;;;;;;;;;;;;;5006566;28;19962;-69
2022/01/03 09:39:46;;;;;;;;;;;;;;;;;;5010348;28;19932;-69
2022/01/03 09:42:13;;;;;;;;;;;;;;;;;;5007633;28;21325;-67
2022/01/03 09:44:40;;;;;;;;;;;;;;;;;;5005448;28;19943;-66
2022/01/03 09:47:07;;;;;;;;;;;;;;;;;;5003682;28;19929;-69
2022/01/03 09:49:38;;;;;;;;;;;;;;;;;;5005337;28;20533;-67
2022/01/03 09:52:05;;;;;;;;;;;;;;;;;;5007356;28;20016;-67
2022/01/03 09:54:32;;;;;;;;;;;;;;;;;;5006860;28;19925;-68
2022/01/03 09:56:59;;;;;;;;;;;;;;;;;;5007289;28;20404;-66
2022/01/03 09:59:26;;;;;;;;;;;;;;;;;;5008698;28;19930;-66
2022/01/03 10:01:53;;;;;;;;;;;;;;;;;;5005270;28;19936;-67
2022/01/03 10:04:20;;;;;;;;;;;;;;;;;;5005149;28;19926;-67
2022/01/03 10:06:47;;;;;;;;;;;;;;;;;;5003555;28;20019;-70
2022/01/03 10:09:14;;;;;;;;;;;;;;;;;;5007466;28;19932;-68
2022/01/03 10:11:41;;;;;;;;;;;;;;;;;;5006954;28;19925;-70
2022/01/03 10:14:09;;;;;;;;;;;;;;;;;;5005322;28;19929;-70
2022/01/03 10:16:36;;;;;;;;;;;;;;;;;;5007942;28;19925;-69
2022/01/03 10:19:03;;;;;;;;;;;;;;;;;;5006253;28;19925;-68
2022/01/03 10:21:30;;;;;;;;;;;;;;;;;;5005505;28;19958;-69
2022/01/03 10:23:57;;;;;;;;;;;;;;;;;;5008108;28;20004;-73
2022/01/03 10:26:24;;;;;;;;;;;;;;;;;;4995907;28;19945;-74
2022/01/03 10:28:52;;;;;;;;;;;;;;;;;;5003239;28;20024;-70
2022/01/03 10:31:19;;;;;;;;;;;;;;;;;;5002734;28;19936;-70
2022/01/03 10:33:46;;;;;;;;;;;;;;;;;;5007945;28;19932;-69
2022/01/03 10:36:13;;;;;;;;;;;;;;;;;;5002825;28;20008;-70
2022/01/03 10:38:41;;;;;;;;;;;;;;;;;;5009034;28;19932;-70
2022/01/03 10:41:08;;;;;;;;;;;;;;;;;;5006757;28;19929;-70
2022/01/03 10:43:34;;;;;;;;;;;;;;;;;;5011589;28;20024;-72
2022/01/03 10:46:01;;;;;;;;;;;;;;;;;;5009689;28;19926;-70
2022/01/03 10:48:29;;;;;;;;;;;;;;;;;;5006127;28;19944;-70
2022/01/03 10:50:56;;;;;;;;;;;;;;;;;;5000074;28;20024;-71
2022/01/03 10:53:23;;;;;;;;;;;;;;;;;;5004538;28;19933;-70
2022/01/03 10:55:49;;;;;;;;;;;;;;;;;;5005245;28;19926;-70
2022/01/03 10:58:17;;;;;;;;;;;;;;;;;;5005691;28;19948;-71
2022/01/03 11:00:45;;;;;;;;;;;;;;;;;;5010249;28;19957;-70
2022/01/03 11:03:23;;;;;;;;;;;;;;;;;;5003496;28;19926;-70
2022/01/03 11:05:52;;;;;;;;;;;;;;;;;;5002540;28;19926;-70
2022/01/03 11:11:04;;;;;;;;;;;;;;;;;;5004396;28;20388;-70
2022/01/03 11:13:33;;;;;;;;;;;;;;;;;;5005548;28;20349;-69
2022/01/03 11:16:00;;;;;;;;;;;;;;;;;;5005293;28;19965;-69
2022/01/03 11:18:27;;;;;;;;;;;;;;;;;;5004127;28;19925;-70
2022/01/03 11:20:53;;;;;;;;;;;;;;;;;;5002081;28;19927;-71
2022/01/03 11:23:20;;;;;;;;;;;;;;;;;;5003389;28;19939;-69
2022/01/03 11:25:47;;;;;;;;;;;;;;;;;;5005720;28;20415;-69
2022/01/03 11:28:14;;;;;;;;;;;;;;;;;;4999035;28;20382;-71
2022/01/03 11:30:41;;;;;;;;;;;;;;;;;;4998376;28;19933;-70
2022/01/03 11:33:08;;;;;;;;;;;;;;;;;;5002218;28;20024;-70
2022/01/03 11:35:35;;;;;;;;;;;;;;;;;;5004615;28;19929;-70
2022/01/03 11:38:02;;;;;;;;;;;;;;;;;;5012067;28;20465;-69
2022/01/03 11:40:29;;;;;;;;;;;;;;;;;;5004724;28;19965;-69
2022/01/03 11:42:57;;;;;;;;;;;;;;;;;;5001493;28;19979;-70
2022/01/03 11:45:24;;;;;;;;;;;;;;;;;;5001628;28;19933;-68
2022/01/03 11:47:51;;;;;;;;;;;;;;;;;;5004379;28;20434;-71
2022/01/03 11:50:18;;;;;;;;;;;;;;;;;;5006412;28;20745;-69
2022/01/03 11:52:45;;;;;;;;;;;;;;;;;;5008070;28;19932;-70
2022/01/03 11:55:12;;;;;;;;;;;;;;;;;;5006302;28;20303;-70
2022/01/03 11:57:46;;;;;;;;;;;;;;;;;;5007930;28;20024;-69
2022/01/03 12:05:42;;;;;;;;;;;;;;;;;;5009238;28;19976;-70
2022/01/03 12:08:09;;;;;;;;;;;;;;;;;;5011871;28;20016;-70
2022/01/03 12:10:36;;;;;;;;;;;;;;;;;;5011583;28;19953;-70
2022/01/03 12:13:03;;;;;;;;;;;;;;;;;;5010330;28;20016;-70
2022/01/03 12:15:30;;;;;;;;;;;;;;;;;;5005785;28;19929;-70
2022/01/03 12:17:58;;;;;;;;;;;;;;;;;;5008925;28;19931;-69
2022/01/03 12:20:27;;;;;;;;;;;;;;;;;;5009898;28;19972;-71
2022/01/03 12:22:54;;;;;;;;;;;;;;;;;;5008157;28;20396;-69
2022/01/03 12:25:21;;;;;;;;;;;;;;;;;;5004746;28;19997;-69
2022/01/03 12:27:48;;;;;;;;;;;;;;;;;;5008421;28;19926;-69
2022/01/03 12:30:15;;;;;;;;;;;;;;;;;;5010158;28;19931;-70
2022/01/03 12:32:43;;;;;;;;;;;;;;;;;;5008068;28;20012;-72
2022/01/03 12:35:10;;;;;;;;;;;;;;;;;;5005796;28;19932;-69
2022/01/03 12:37:37;;;;;;;;;;;;;;;;;;5008876;28;19930;-69
2022/01/03 12:40:04;;;;;;;;;;;;;;;;;;5006731;28;19933;-69
2022/01/03 12:42:31;;;;;;;;;;;;;;;;;;5004998;28;19934;-70
2022/01/03 12:45:01;;;;;;;;;;;;;;;;;;5003399;28;19925;-70
2022/01/03 12:47:28;;;;;;;;;;;;;;;;;;5002214;28;19945;-70
2022/01/03 12:49:54;;;;;;;;;;;;;;;;;;5003279;28;20025;-70
2022/01/03 12:52:22;;;;;;;;;;;;;;;;;;5007002;28;19936;-70
2022/01/03 12:54:48;;;;;;;;;;;;;;;;;;5010190;28;19925;-69
2022/01/03 12:57:15;;;;;;;;;;;;;;;;;;5007159;28;19964;-69
2022/01/03 12:59:43;;;;;;;;;;;;;;;;;;5007789;28;19926;-70
2022/01/03 13:02:10;;;;;;;;;;;;;;;;;;5008689;28;19925;-70
2022/01/03 13:04:37;;;;;;;;;;;;;;;;;;5004945;28;20339;-70
2022/01/03 13:07:04;;;;;;;;;;;;;;;;;;5008167;28;20308;-70
2022/01/03 13:09:31;;;;;;;;;;;;;;;;;;5006959;28;19929;-72
2022/01/03 13:12:05;;;;;;;;;;;;;;;;;;5008793;28;20392;-70
2022/01/03 13:14:32;;;;;;;;;;;;;;;;;;5006074;28;20052;-69
2022/01/03 13:16:59;;;;;;;;;;;;;;;;;;5005251;28;20847;-70
2022/01/03 13:19:27;;;;;;;;;;;;;;;;;;5009809;28;20009;-69
2022/01/03 13:21:54;;;;;;;;;;;;;;;;;;5008703;28;19995;-69
2022/01/03 13:24:21;;;;;;;;;;;;;;;;;;5009776;28;19937;-71
2022/01/03 13:26:48;;;;;;;;;;;;;;;;;;5005664;28;20459;-68
2022/01/03 13:29:15;;;;;;;;;;;;;;;;;;5005911;28;19973;-67
2022/01/03 13:31:42;;;;;;;;;;;;;;;;;;5009345;28;19932;-68
2022/01/03 13:34:09;;;;;;;;;;;;;;;;;;5010017;28;20016;-68
2022/01/03 13:36:36;;;;;;;;;;;;;;;;;;5007625;28;19925;-69
2022/01/03 13:39:03;;;;;;;;;;;;;;;;;;5007747;28;19937;-69
2022/01/03 13:41:32;;;;;;;;;;;;;;;;;;5009208;28;19934;-69
2022/01/03 13:44:00;;;;;;;;;;;;;;;;;;5008398;28;20350;-69
2022/01/03 13:49:14;;;;;;;;;;;;;;;;;;5002887;28;19920;-68
2022/01/03 13:51:41;;;;;;;;;;;;;;;;;;5010426;28;19932;-68
2022/01/03 13:54:08;;;;;;;;;;;;;;;;;;5007474;28;19933;-69
2022/01/03 13:56:35;;;;;;;;;;;;;;;;;;5005329;28;19925;-69
2022/01/03 13:59:02;;;;;;;;;;;;;;;;;;5007992;28;20303;-69
2022/01/03 14:01:31;;;;;;;;;;;;;;;;;;5006026;28;19925;-70
2022/01/03 14:03:58;;;;;;;;;;;;;;;;;;5011021;28;19931;-67
2022/01/03 14:06:25;;;;;;;;;;;;;;;;;;5008920;28;20296;-68
2022/01/03 14:08:53;;;;;;;;;;;;;;;;;;5005733;28;20311;-69
2022/01/03 14:11:20;;;;;;;;;;;;;;;;;;5002619;28;19930;-68
2022/01/03 14:13:47;;;;;;;;;;;;;;;;;;5006223;28;19944;-69
2022/01/03 14:16:14;;;;;;;;;;;;;;;;;;5008155;28;19925;-70
2022/01/03 14:18:41;;;;;;;;;;;;;;;;;;5009208;28;20290;-69
2022/01/03 14:21:08;;;;;;;;;;;;;;;;;;5009858;28;20380;-68
2022/01/03 14:23:35;;;;;;;;;;;;;;;;;;5007220;28;19932;-69
2022/01/03 14:26:02;;;;;;;;;;;;;;;;;;5006600;28;19932;-70
2022/01/03 14:28:29;;;;;;;;;;;;;;;;;;5002112;28;19935;-70
2022/01/03 14:30:56;;;;;;;;;;;;;;;;;;5005748;28;19932;-71
2022/01/03 14:33:23;;;;;;;;;;;;;;;;;;5007333;28;20005;-71
2022/01/03 14:35:50;;;;;;;;;;;;;;;;;;5008779;28;19931;-71
2022/01/03 14:38:18;;;;;;;;;;;;;;;;;;5007485;28;19925;-70
2022/01/03 14:40:45;;;;;;;;;;;;;;;;;;5008147;28;20394;-71
2022/01/03 14:43:14;;;;;;;;;;;;;;;;;;5002615;28;21422;-70
2022/01/03 14:45:41;;;;;;;;;;;;;;;;;;5005214;28;20484;-71
2022/01/03 14:48:11;;;;;;;;;;;;;;;;;;5003753;28;19933;-72
2022/01/03 14:50:38;;;;;;;;;;;;;;;;;;5007011;28;20277;-72
2022/01/03 14:53:07;;;;;;;;;;;;;;;;;;4998700;28;20303;-72
2022/01/03 14:55:35;;;;;;;;;;;;;;;;;;5004021;28;19976;-71
2022/01/03 14:58:04;;;;;;;;;;;;;;;;;;5004402;28;19933;-72
2022/01/03 15:00:31;;;;;;;;;;;;;;;;;;5006281;28;20491;-72
2022/01/03 15:02:58;;;;;;;;;;;;;;;;;;5005165;28;19930;-71
2022/01/03 15:05:24;;;;;;;;;;;;;;;;;;5003243;28;19932;-71
2022/01/03 15:07:51;;;;;;;;;;;;;;;;;;5003193;28;19933;-71
2022/01/03 15:10:18;;;;;;;;;;;;;;;;;;5000361;28;19932;-70
2022/01/03 15:12:46;;;;;;;;;;;;;;;;;;5001066;28;19977;-74
2022/01/03 15:15:13;;;;;;;;;;;;;;;;;;4999850;28;20349;-71
2022/01/03 15:17:40;;;;;;;;;;;;;;;;;;5001316;28;20791;-73
2022/01/03 15:20:07;;;;;;;;;;;;;;;;;;4999473;28;19929;-71
2022/01/03 15:22:34;;;;;;;;;;;;;;;;;;4999035;28;19933;-71
2022/01/03 15:25:00;;;;;;;;;;;;;;;;;;5006241;28;19929;-71
2022/01/03 15:27:27;;;;;;;;;;;;;;;;;;5000293;28;19933;-71
2022/01/03 15:29:54;;;;;;;;;;;;;;;;;;5001799;28;19940;-73
2022/01/03 15:32:21;;;;;;;;;;;;;;;;;;5002483;28;20343;-71
2022/01/03 15:34:48;;;;;;;;;;;;;;;;;;5005459;28;20397;-72
2022/01/03 15:37:15;;;;;;;;;;;;;;;;;;5004586;28;19936;-72
2022/01/03 15:39:42;;;;;;;;;;;;;;;;;;5007520;28;19930;-71
2022/01/03 15:42:09;;;;;;;;;;;;;;;;;;5000977;28;20020;-71
2022/01/03 15:44:36;;;;;;;;;;;;;;;;;;4995201;28;19940;-71
2022/01/03 15:47:04;;;;;;;;;;;;;;;;;;4999541;28;19929;-71
2022/01/03 15:49:31;;;;;;;;;;;;;;;;;;4994867;28;20028;-72
2022/01/03 15:51:58;;;;;;;;;;;;;;;;;;5011024;28;19929;-71
2022/01/03 15:54:25;;;;;;;;;;;;;;;;;;5004986;28;20026;-71
2022/01/03 15:56:53;;;;;;;;;;;;;;;;;;5000243;28;19933;-72
2022/01/03 15:59:20;;;;;;;;;;;;;;;;;;4998587;28;19961;-71
2022/01/03 16:01:47;;;;;;;;;;;;;;;;;;4999880;28;19926;-71
2022/01/03 16:04:14;;;;;;;;;;;;;;;;;;5000169;28;19933;-70
2022/01/03 16:06:41;;;;;;;;;;;;;;;;;;5007308;28;19933;-70
2022/01/03 16:09:08;;;;;;;;;;;;;;;;;;5008870;28;19972;-70
2022/01/03 16:11:35;;;;;;;;;;;;;;;;;;5006986;28;19929;-70
2022/01/03 16:14:02;;;;;;;;;;;;;;;;;;5008221;28;20048;-70
2022/01/03 16:16:29;;;;;;;;;;;;;;;;;;5007606;28;19941;-70
2022/01/03 16:18:56;;;;;;;;;;;;;;;;;;5009745;28;19925;-72
2022/01/03 16:21:23;;;;;;;;;;;;;;;;;;5013875;28;19929;-71
2022/01/03 16:23:50;;;;;;;;;;;;;;;;;;5009860;28;20500;-71
2022/01/03 16:26:17;;;;;;;;;;;;;;;;;;5007354;28;20315;-72
2022/01/03 16:28:44;;;;;;;;;;;;;;;;;;5008003;28;20894;-70
2022/01/03 16:31:11;;;;;;;;;;;;;;;;;;5011501;28;20012;-71
2022/01/03 16:33:38;;;;;;;;;;;;;;;;;;5003014;28;20028;-72
2022/01/03 16:36:05;;;;;;;;;;;;;;;;;;5002880;28;19929;-71
2022/01/03 16:38:32;;;;;;;;;;;;;;;;;;5005251;28;19929;-71
2022/01/03 16:40:59;;;;;;;;;;;;;;;;;;5004753;28;20020;-71
2022/01/03 16:43:26;;;;;;;;;;;;;;;;;;5006151;28;19932;-71
2022/01/03 16:45:53;;;;;;;;;;;;;;;;;;5002538;28;19926;-71
2022/01/03 16:48:20;;;;;;;;;;;;;;;;;;4997511;28;19925;-71
2022/01/03 16:50:48;;;;;;;;;;;;;;;;;;5000749;28;19957;-70
2022/01/03 16:53:15;;;;;;;;;;;;;;;;;;5002788;28;19929;-70
2022/01/03 16:55:42;;;;;;;;;;;;;;;;;;5003534;28;19958;-70
2022/01/03 16:58:09;;;;;;;;;;;;;;;;;;5004804;28;19931;-70
2022/01/03 17:00:36;;;;;;;;;;;;;;;;;;5003519;28;19926;-71
2022/01/03 17:03:03;;;;;;;;;;;;;;;;;;4999839;28;19940;-71
2022/01/03 17:05:30;;;;;;;;;;;;;;;;;;5008199;28;19925;-70